Time;durP1;ratioP1;P1;durP2;ratioP2;P2;SDS_P1;SDS_P2;PMS_P1;PMS_P2;Temp;Humidity;BMP_temperature;BMP_pressure;BME280_temperature;BME280_humidity;BME280_pressure;Samples;Min_cycle;Max_cycle;Signal;HPM_P1;HPM_P2
2022/11/15 00:01:18;;;;;;;43.10;16.50;;;;;;;4.41;79.33;99389.17;103554;1295;111629;-68
2022/11/15 00:03:51;;;;;;;43.70;19.70;;;;;;;4.34;79.17;99393.02;103562;1295;97928;-68
2022/11/15 00:06:20;;;;;;;52.60;19.70;;;;;;;4.30;79.58;99394.19;103587;1297;107427;-68
2022/11/15 00:08:47;;;;;;;43.00;18.90;;;;;;;4.31;79.44;99386.59;103543;1295;96310;-69
2022/11/15 00:11:15;;;;;;;56.20;19.10;;;;;;;4.35;79.51;99386.84;103586;1297;95093;-69
2022/11/15 00:13:44;;;;;;;67.20;20.20;;;;;;;4.34;79.60;99383.33;103597;1289;111767;-70
2022/11/15 00:16:12;;;;;;;60.10;19.40;;;;;;;4.32;79.55;99379.55;103597;1295;97876;-69
2022/11/15 00:18:39;;;;;;;52.10;20.60;;;;;;;4.29;79.55;99378.43;103575;1289;108104;-69
2022/11/15 00:21:13;;;;;;;47.40;21.10;;;;;;;4.28;79.61;99376.41;103546;1291;98069;-69
2022/11/15 00:23:41;;;;;;;40.20;20.40;;;;;;;4.25;79.34;99373.18;103613;1291;97847;-70
2022/11/15 00:26:13;;;;;;;43.80;16.70;;;;;;;4.23;79.30;99371.71;103562;1289;111704;-69
2022/11/15 00:28:42;;;;;;;55.00;17.60;;;;;;;4.17;79.19;99371.07;103576;1299;95137;-69
2022/11/15 00:31:13;;;;;;;53.00;15.50;;;;;;;4.09;79.18;99364.70;103620;1299;107940;-69
2022/11/15 00:33:44;;;;;;;64.90;15.20;;;;;;;4.05;79.47;99364.36;103615;1291;96285;-69
2022/11/15 00:36:12;;;;;;;43.60;14.00;;;;;;;4.00;79.30;99359.64;103455;1297;97850;-68
2022/11/15 00:38:41;;;;;;;54.10;13.50;;;;;;;3.94;79.54;99357.43;103656;1292;109798;-69
2022/11/15 00:41:09;;;;;;;46.80;14.20;;;;;;;3.88;79.32;99356.25;103594;1291;97933;-70
2022/11/15 00:43:39;;;;;;;36.70;14.30;;;;;;;3.85;79.33;99356.72;103601;1291;107799;-69
2022/11/15 00:46:10;;;;;;;40.10;13.50;;;;;;;3.87;79.64;99353.81;103571;1299;97992;-69
2022/11/15 00:48:37;;;;;;;38.70;13.60;;;;;;;3.92;79.33;99350.31;103664;1297;95159;-70
2022/11/15 00:51:06;;;;;;;34.80;13.00;;;;;;;3.94;79.63;99348.65;103698;1282;111789;-71
2022/11/15 00:53:34;;;;;;;24.80;11.70;;;;;;;3.96;79.68;99346.98;103691;1291;95097;-69
2022/11/15 00:56:02;;;;;;;26.60;13.00;;;;;;;3.99;79.82;99347.23;103581;1299;107045;-69
2022/11/15 00:58:30;;;;;;;28.30;13.20;;;;;;;4.04;79.57;99348.27;103627;1292;98542;-69
2022/11/15 01:01:11;;;;;;;67.50;13.60;;;;;;;4.08;79.58;99345.29;103657;1291;97893;-67
2022/11/15 01:03:41;;;;;;;86.60;12.70;;;;;;;4.05;79.43;99346.28;103647;1292;109790;-68
2022/11/15 01:06:10;;;;;;;42.00;12.20;;;;;;;4.04;79.61;99345.10;103684;1292;95107;-68
2022/11/15 01:08:40;;;;;;;63.70;12.40;;;;;;;4.04;79.63;99346.12;103648;1297;107418;-68
2022/11/15 01:11:12;;;;;;;118.70;16.40;;;;;;;4.01;79.60;99344.14;103592;1297;95174;-67
2022/11/15 01:13:40;;;;;;;96.10;15.10;;;;;;;3.96;79.42;99341.38;103603;1299;97815;-68
2022/11/15 01:16:16;;;;;;;45.60;14.50;;;;;;;3.92;79.45;99338.91;103602;1290;111440;-68
2022/11/15 01:18:46;;;;;;;40.70;14.10;;;;;;;3.88;79.60;99338.86;103680;1291;96348;-69
2022/11/15 01:21:18;;;;;;;119.30;17.70;;;;;;;3.88;79.58;99338.55;103604;1292;108027;-67
2022/11/15 01:23:46;;;;;;;88.70;16.60;;;;;;;3.86;79.77;99335.27;103660;1286;98328;-67
2022/11/15 01:26:15;;;;;;;97.10;16.70;;;;;;;3.84;79.68;99330.10;103663;1290;97983;-68
2022/11/15 01:28:43;;;;;;;61.80;16.70;;;;;;;3.84;79.65;99327.84;103643;1291;111391;-69
2022/11/15 01:31:15;;;;;;;52.10;15.80;;;;;;;3.83;79.66;99323.64;103594;1297;97699;-67
2022/11/15 01:33:44;;;;;;;56.30;18.60;;;;;;;3.83;79.88;99316.46;103634;1295;108046;-68
2022/11/15 01:36:16;;;;;;;70.60;18.50;;;;;;;3.84;79.77;99312.75;103637;1290;97954;-68
2022/11/15 01:38:45;;;;;;;39.40;18.40;;;;;;;3.84;79.81;99306.06;103597;1298;97873;-68
2022/11/15 01:41:20;;;;;;;49.90;17.70;;;;;;;3.87;79.97;99305.41;103653;1292;110839;-68
2022/11/15 01:43:54;;;;;;;64.40;17.70;;;;;;;3.91;79.69;99305.27;103648;1291;97969;-68
2022/11/15 01:46:35;;;;;;;50.60;17.00;;;;;;;3.90;79.82;99305.83;103638;1282;106880;-68
2022/11/15 01:49:13;;;;;;;81.00;20.20;;;;;;;3.85;79.69;99305.48;103592;1295;97940;-67
2022/11/15 01:51:41;;;;;;;89.40;22.50;;;;;;;3.82;79.89;99299.30;103651;1298;97931;-68
2022/11/15 01:54:15;;;;;;;80.90;21.00;;;;;;;3.80;79.64;99299.55;103597;1295;110229;-67
2022/11/15 01:56:52;;;;;;;41.10;19.10;;;;;;;3.78;79.71;99297.55;103643;1282;97873;-68
2022/11/15 01:59:21;;;;;;;60.30;20.70;;;;;;;3.80;79.89;99297.97;103611;1306;108295;-68
2022/11/15 02:01:51;;;;;;;52.20;20.50;;;;;;;3.85;79.82;99293.95;103564;1299;97995;-70
2022/11/15 02:04:25;;;;;;;96.80;21.80;;;;;;;3.88;79.87;99296.77;103652;1288;97853;-69
2022/11/15 02:06:54;;;;;;;73.30;19.70;;;;;;;3.91;80.00;99299.65;103634;1289;111489;-68
2022/11/15 02:09:23;;;;;;;90.70;19.40;;;;;;;3.92;79.78;99299.94;103628;1299;97926;-69
2022/11/15 02:11:54;;;;;;;147.40;21.40;;;;;;;3.93;79.83;99296.76;103647;1298;108086;-68
2022/11/15 02:14:25;;;;;;;49.30;19.80;;;;;;;3.89;79.71;99294.60;103611;1299;97952;-68
2022/11/15 02:16:53;;;;;;;61.40;18.60;;;;;;;3.88;79.80;99288.67;103615;1289;97872;-69
2022/11/15 02:19:33;;;;;;;68.80;19.80;;;;;;;3.91;79.90;99285.06;103591;1291;111420;-67
2022/11/15 02:22:34;;;;;;;87.80;19.60;;;;;;;3.92;79.91;99283.81;103600;1298;97961;-67
2022/11/15 02:25:24;;;;;;;54.30;17.10;;;;;;;3.91;79.84;99279.45;103640;1282;108069;-68
2022/11/15 02:28:20;;;;;;;44.10;17.60;;;;;;;3.91;79.81;99279.28;103625;1291;95657;-68
2022/11/15 02:31:10;;;;;;;62.60;17.80;;;;;;;3.91;79.99;99275.61;103586;1295;97947;-68
2022/11/15 02:33:46;;;;;;;94.50;21.00;;;;;;;3.88;79.89;99271.34;103654;1294;109785;-68
2022/11/15 02:36:30;;;;;;;131.10;23.30;;;;;;;3.86;80.10;99276.14;103650;1291;97873;-68
2022/11/15 02:39:23;;;;;;;146.00;24.50;;;;;;;3.79;79.82;99272.05;103572;1286;107460;-68
2022/11/15 02:42:03;;;;;;;101.20;21.20;;;;;;;3.72;80.04;99272.16;103606;1292;95225;-68
2022/11/15 02:44:39;;;;;;;87.00;19.50;;;;;;;3.66;79.93;99268.73;103674;1290;97863;-69
2022/11/15 02:47:15;;;;;;;107.70;22.40;;;;;;;3.56;79.93;99274.23;103605;1282;110900;-68
2022/11/15 02:49:50;;;;;;;41.10;21.60;;;;;;;3.51;79.95;99269.70;103596;1289;97873;-67
2022/11/15 02:52:22;;;;;;;45.50;21.90;;;;;;;3.54;80.13;99267.12;103574;1291;107240;-68
2022/11/15 02:55:01;;;;;;;50.90;22.20;;;;;;;3.59;80.35;99262.02;103595;1289;95410;-69
2022/11/15 02:57:58;;;;;;;52.30;21.70;;;;;;;3.64;80.29;99261.64;103713;1291;96267;-68
2022/11/15 03:00:32;;;;;;;87.20;22.40;;;;;;;3.69;80.35;99257.73;103637;1297;112361;-69
2022/11/15 03:03:08;;;;;;;77.30;19.20;;;;;;;3.67;79.93;99257.48;103702;1295;97962;-68
2022/11/15 03:05:50;;;;;;;75.80;20.00;;;;;;;3.60;79.74;99253.91;103697;1289;107500;-68
2022/11/15 03:08:35;;;;;;;77.00;19.40;;;;;;;3.52;79.87;99247.73;103645;1291;97985;-69
2022/11/15 03:11:16;;;;;;;80.40;16.70;;;;;;;3.48;79.82;99250.34;103597;1290;97829;-68
2022/11/15 03:13:57;;;;;;;72.10;16.30;;;;;;;3.43;79.92;99246.15;103598;1291;111720;-68
2022/11/15 03:16:37;;;;;;;68.50;18.40;;;;;;;3.41;80.11;99245.72;103589;1291;97966;-67
2022/11/15 03:19:14;;;;;;;59.00;17.60;;;;;;;3.41;80.33;99239.03;103561;1297;108149;-68
2022/11/15 03:21:45;;;;;;;125.50;20.10;;;;;;;3.42;80.22;99235.14;103568;1290;97838;-69
2022/11/15 03:24:16;;;;;;;95.00;17.50;;;;;;;3.45;80.12;99235.40;103619;1291;97923;-68
2022/11/15 03:26:53;;;;;;;92.10;15.90;;;;;;;3.45;80.27;99236.10;103566;1297;111796;-68
2022/11/15 03:29:33;;;;;;;82.50;14.70;;;;;;;3.45;80.28;99235.59;103618;1295;97787;-68
2022/11/15 03:32:24;;;;;;;36.10;11.00;;;;;;;3.42;80.16;99229.89;103576;1297;108172;-69
2022/11/15 03:35:02;;;;;;;55.80;10.80;;;;;;;3.40;79.81;99227.70;103577;1291;98642;-69
2022/11/15 03:38:10;;;;;;;28.20;9.30;;;;;;;3.35;80.07;99222.65;103645;1289;97926;-68
2022/11/15 03:40:47;;;;;;;54.90;9.90;;;;;;;3.33;80.06;99219.23;103574;1295;111731;-68
2022/11/15 03:43:25;;;;;;;111.10;12.80;;;;;;;3.32;79.93;99215.59;103597;1290;97865;-68
2022/11/15 03:46:04;;;;;;;98.70;12.20;;;;;;;3.29;79.97;99217.79;103571;1289;107471;-68
2022/11/15 03:48:41;;;;;;;54.40;10.60;;;;;;;3.28;80.23;99215.91;103564;1299;99462;-68
2022/11/15 03:51:11;;;;;;;35.90;9.60;;;;;;;3.30;80.21;99208.48;103601;1289;97853;-68
2022/11/15 03:53:40;;;;;;;84.20;11.60;;;;;;;3.33;80.27;99207.10;103617;1291;111149;-68
2022/11/15 03:56:08;;;;;;;73.40;10.30;;;;;;;3.36;80.35;99206.67;103605;1289;97888;-68
2022/11/15 03:58:36;;;;;;;98.80;11.20;;;;;;;3.37;80.35;99201.51;103604;1298;108113;-69
2022/11/15 04:01:04;;;;;;;89.90;10.20;;;;;;;3.34;80.42;99202.02;103576;1291;96244;-70
2022/11/15 04:03:32;;;;;;;125.50;12.00;;;;;;;3.22;79.88;99196.54;103575;1296;95321;-69
2022/11/15 04:06:01;;;;;;;136.30;11.50;;;;;;;3.08;79.83;99201.28;103605;1291;111792;-68
2022/11/15 04:08:29;;;;;;;139.30;11.50;;;;;;;2.98;79.90;99197.98;103570;1298;97966;-68
2022/11/15 04:10:57;;;;;;;119.60;13.40;;;;;;;2.91;80.00;99198.10;103561;1297;108023;-67
2022/11/15 04:13:26;;;;;;;96.90;12.30;;;;;;;2.88;80.12;99195.05;103578;1299;97907;-68
2022/11/15 04:15:54;;;;;;;96.70;12.80;;;;;;;2.88;80.18;99193.30;103589;1295;96566;-68
2022/11/15 04:18:21;;;;;;;79.20;11.20;;;;;;;2.88;80.31;99192.42;103531;1289;111619;-67
2022/11/15 04:26:23;;;;;;;75.30;9.60;;;;;;;2.93;80.27;99186.11;103543;1289;97970;-68
2022/11/15 04:31:38;;;;;;;69.10;8.90;;;;;;;2.86;80.21;99185.69;103561;1292;111828;-68
2022/11/15 04:34:07;;;;;;;101.50;10.60;;;;;;;2.80;80.07;99183.46;103600;1292;96203;-70
2022/11/15 04:39:21;;;;;;;48.50;8.30;;;;;;;2.65;80.07;99186.13;103500;1298;97837;-68
2022/11/15 04:41:49;;;;;;;37.90;7.90;;;;;;;2.65;80.12;99187.20;103550;1298;95182;-66
2022/11/15 04:44:17;;;;;;;64.60;7.00;;;;;;;2.66;80.19;99184.86;103486;1289;129885;-66
2022/11/15 04:46:45;;;;;;;82.30;7.50;;;;;;;2.59;79.98;99185.83;103569;1296;96931;-68
2022/11/15 04:49:12;;;;;;;78.30;7.30;;;;;;;2.46;79.80;99184.91;103524;1289;108230;-69
2022/11/15 04:51:40;;;;;;;71.50;7.00;;;;;;;2.36;79.78;99187.02;103553;1282;97866;-69
2022/11/15 04:54:08;;;;;;;70.60;7.00;;;;;;;2.25;79.76;99185.86;103450;1292;97865;-68
2022/11/15 04:56:36;;;;;;;46.80;6.60;;;;;;;2.14;79.66;99181.17;103491;1290;111203;-69
2022/11/15 04:59:04;;;;;;;50.80;7.00;;;;;;;2.05;79.79;99179.39;103491;1285;97964;-70
2022/11/15 05:01:32;;;;;;;40.90;6.60;;;;;;;1.99;79.87;99177.36;103489;1291;108007;-70
2022/11/15 05:04:19;;;;;;;47.80;7.30;;;;;;;1.95;80.09;99178.73;103508;1291;97983;-68
2022/11/15 05:06:49;;;;;;;49.90;6.50;;;;;;;1.90;79.97;99171.69;103504;1297;97859;-68
2022/11/15 05:09:20;;;;;;;51.50;6.50;;;;;;;1.86;79.86;99168.53;103504;1289;111767;-69
2022/11/15 05:11:48;;;;;;;38.50;6.20;;;;;;;1.80;80.14;99164.54;103582;1292;97942;-67
2022/11/15 05:14:16;;;;;;;51.50;6.50;;;;;;;1.77;80.23;99163.61;103513;1292;108154;-68
2022/11/15 05:16:44;;;;;;;50.80;7.70;;;;;;;1.72;80.12;99163.09;103582;1291;95182;-67
2022/11/15 05:19:12;;;;;;;43.90;7.20;;;;;;;1.67;79.91;99158.70;103556;1292;97898;-67
2022/11/15 05:21:41;;;;;;;53.40;7.50;;;;;;;1.65;80.17;99151.78;103581;1288;111777;-68
2022/11/15 05:24:11;;;;;;;57.60;7.60;;;;;;;1.62;80.14;99146.98;103606;1299;98290;-67
2022/11/15 05:26:38;;;;;;;36.70;7.20;;;;;;;1.62;80.09;99145.77;103425;1290;106005;-67
2022/11/15 05:29:10;;;;;;;49.20;7.20;;;;;;;1.65;80.25;99144.42;103535;1291;97972;-68
2022/11/15 05:31:41;;;;;;;71.20;7.70;;;;;;;1.68;80.35;99136.11;103614;1287;95156;-67
2022/11/15 05:34:09;;;;;;;55.10;7.60;;;;;;;1.64;80.10;99133.11;103624;1299;111691;-68
2022/11/15 05:36:42;;;;;;;55.00;7.80;;;;;;;1.56;80.14;99131.45;103594;1292;95548;-69
2022/11/15 05:39:10;;;;;;;47.50;8.60;;;;;;;1.51;79.97;99130.59;103586;1297;108081;-68
2022/11/15 05:41:46;;;;;;;59.90;7.90;;;;;;;1.48;80.26;99134.54;103568;1292;97954;-68
2022/11/15 05:44:19;;;;;;;32.20;7.10;;;;;;;1.45;80.18;99132.72;103582;1297;97960;-67
2022/11/15 05:46:53;;;;;;;40.40;7.30;;;;;;;1.40;80.41;99131.33;103554;1289;111764;-68
2022/11/15 05:49:27;;;;;;;41.90;7.60;;;;;;;1.37;80.34;99129.67;103621;1298;97702;-68
2022/11/15 05:51:58;;;;;;;46.70;7.50;;;;;;;1.37;80.16;99127.41;103592;1281;107448;-69
2022/11/15 05:54:26;;;;;;;31.10;7.70;;;;;;;1.35;80.27;99130.09;103568;1295;96508;-68
2022/11/15 05:56:55;;;;;;;25.30;7.60;;;;;;;1.34;80.38;99132.21;103576;1289;97884;-68
2022/11/15 05:59:24;;;;;;;29.00;8.20;;;;;;;1.37;80.39;99131.94;103572;1295;111612;-68
2022/11/15 06:01:52;;;;;;;29.00;7.40;;;;;;;1.38;80.51;99127.70;103559;1289;97922;-67
2022/11/15 06:04:21;;;;;;;32.40;8.50;;;;;;;1.36;80.37;99124.29;103552;1298;108119;-68
2022/11/15 06:06:49;;;;;;;31.10;8.60;;;;;;;1.34;80.21;99127.29;103578;1289;97955;-67
2022/11/15 06:09:18;;;;;;;33.40;7.90;;;;;;;1.35;80.50;99121.86;103572;1282;97957;-67
2022/11/15 06:11:46;;;;;;;42.80;7.80;;;;;;;1.33;80.25;99121.59;103563;1297;111350;-68
2022/11/15 06:14:14;;;;;;;46.50;10.10;;;;;;;1.28;80.35;99122.80;103453;1297;97923;-68
2022/11/15 06:16:42;;;;;;;45.00;8.80;;;;;;;1.26;80.41;99125.85;103577;1292;108101;-67
2022/11/15 06:19:09;;;;;;;53.00;9.00;;;;;;;1.27;80.46;99122.65;103546;1295;95166;-67
2022/11/15 06:21:38;;;;;;;47.40;9.60;;;;;;;1.30;80.37;99123.61;103589;1295;97857;-68
2022/11/15 06:24:07;;;;;;;56.60;10.50;;;;;;;1.30;80.58;99129.19;103534;1297;111350;-67
2022/11/15 06:26:35;;;;;;;72.70;10.60;;;;;;;1.31;80.25;99127.77;103564;1298;95305;-67
2022/11/15 06:29:04;;;;;;;42.70;10.20;;;;;;;1.30;80.30;99123.95;103541;1298;108662;-67
2022/11/15 06:31:34;;;;;;;48.60;8.60;;;;;;;1.29;80.56;99121.40;103646;1292;95442;-67
2022/11/15 06:34:02;;;;;;;44.70;9.70;;;;;;;1.28;80.57;99118.75;103669;1283;97825;-67
2022/11/15 06:36:30;;;;;;;33.80;9.90;;;;;;;1.31;80.31;99116.92;103622;1297;111530;-67
2022/11/15 06:38:58;;;;;;;31.90;9.10;;;;;;;1.36;80.45;99116.24;103660;1297;95404;-66
2022/11/15 06:41:26;;;;;;;36.60;11.10;;;;;;;1.41;80.72;99114.85;103656;1289;108183;-67
2022/11/15 06:43:54;;;;;;;26.50;10.30;;;;;;;1.47;80.64;99115.31;103459;1294;97982;-67
2022/11/15 06:46:22;;;;;;;27.80;9.90;;;;;;;1.54;80.54;99114.75;103644;1290;97842;-67
2022/11/15 06:48:52;;;;;;;24.70;9.00;;;;;;;1.60;80.68;99115.23;103436;1293;111457;-68
2022/11/15 06:51:20;;;;;;;21.90;9.90;;;;;;;1.64;80.78;99113.17;103698;1297;97961;-69
2022/11/15 06:53:48;;;;;;;21.80;9.60;;;;;;;1.68;80.76;99113.21;103693;1291;107871;-71
2022/11/15 06:56:16;;;;;;;21.50;9.30;;;;;;;1.72;80.67;99110.27;103551;1286;98024;-68
2022/11/15 06:58:44;;;;;;;21.60;10.50;;;;;;;1.76;80.71;99114.66;103643;1290;97862;-67
2022/11/15 07:01:12;;;;;;;21.80;10.70;;;;;;;1.82;80.77;99112.89;103627;1282;112390;-68
2022/11/15 07:03:42;;;;;;;20.30;9.40;;;;;;;1.88;80.98;99111.09;103643;1285;95201;-67
2022/11/15 07:06:11;;;;;;;21.50;10.30;;;;;;;1.96;80.83;99113.27;103625;1286;107108;-66
2022/11/15 07:08:39;;;;;;;20.50;9.80;;;;;;;2.03;80.99;99105.81;103635;1282;95656;-68
2022/11/15 07:11:08;;;;;;;22.50;10.70;;;;;;;2.11;81.00;99107.66;103572;1291;97893;-68
2022/11/15 07:13:37;;;;;;;21.60;10.60;;;;;;;2.18;80.91;99112.09;103664;1282;109920;-68
2022/11/15 07:16:09;;;;;;;21.20;10.90;;;;;;;2.26;81.11;99113.20;103659;1282;95216;-68
2022/11/15 07:18:39;;;;;;;22.60;11.40;;;;;;;2.33;81.03;99108.38;103614;1282;108069;-68
2022/11/15 07:21:10;;;;;;;20.80;10.40;;;;;;;2.41;81.10;99109.16;103606;1297;96254;-67
2022/11/15 07:23:39;;;;;;;22.50;9.70;;;;;;;2.48;80.93;99103.27;103660;1291;98849;-67
2022/11/15 07:26:08;;;;;;;21.30;10.40;;;;;;;2.55;81.05;99102.65;103538;1294;110846;-68
2022/11/15 07:28:36;;;;;;;20.10;9.20;;;;;;;2.63;81.02;99095.34;103685;1292;97966;-69
2022/11/15 07:31:07;;;;;;;20.80;9.50;;;;;;;2.72;80.92;99093.77;103555;1292;108171;-69
2022/11/15 07:33:35;;;;;;;24.40;10.90;;;;;;;2.80;81.02;99089.05;103598;1299;97776;-68
2022/11/15 07:36:06;;;;;;;21.80;9.90;;;;;;;2.90;81.31;99085.65;103491;1302;98544;-67
2022/11/15 07:38:35;;;;;;;19.40;9.80;;;;;;;3.01;81.15;99086.28;103602;1282;109266;-67
2022/11/15 07:41:10;;;;;;;23.00;10.60;;;;;;;3.11;81.32;99082.71;103604;1297;97960;-66
2022/11/15 07:43:38;;;;;;;22.70;10.30;;;;;;;3.21;81.39;99076.86;103592;1299;106983;-68
2022/11/15 07:46:09;;;;;;;21.90;10.70;;;;;;;3.33;81.48;99076.38;103650;1297;97867;-67
2022/11/15 07:48:41;;;;;;;24.50;12.30;;;;;;;3.44;81.39;99075.73;103658;1291;96959;-68
2022/11/15 07:51:15;;;;;;;29.00;13.40;;;;;;;3.55;81.47;99076.98;103684;1282;110810;-68
2022/11/15 07:53:44;;;;;;;26.90;13.50;;;;;;;3.66;81.65;99077.58;103700;1297;95111;-67
2022/11/15 07:56:12;;;;;;;24.90;11.80;;;;;;;3.76;81.51;99072.39;103629;1298;108132;-70
2022/11/15 07:58:41;;;;;;;25.40;13.10;;;;;;;3.86;81.38;99071.23;103582;1286;97823;-68
2022/11/15 08:01:10;;;;;;;23.70;11.80;;;;;;;3.96;81.17;99070.98;103632;1291;98540;-68
2022/11/15 08:03:39;;;;;;;27.90;12.60;;;;;;;4.06;81.23;99067.75;103648;1292;111797;-68
2022/11/15 08:06:07;;;;;;;24.10;12.10;;;;;;;4.15;81.25;99060.30;103668;1298;97865;-67
2022/11/15 08:08:35;;;;;;;24.60;11.90;;;;;;;4.26;81.42;99060.16;103681;1295;108116;-66
2022/11/15 08:11:03;;;;;;;27.20;12.60;;;;;;;4.37;81.44;99054.03;103632;1291;97838;-68
2022/11/15 08:13:31;;;;;;;26.50;12.80;;;;;;;4.47;81.38;99049.68;103676;1292;97959;-68
2022/11/15 08:16:02;;;;;;;26.50;13.50;;;;;;;4.59;81.63;99046.31;103682;1299;111281;-67
2022/11/15 08:18:31;;;;;;;29.10;13.40;;;;;;;4.71;81.50;99046.04;103667;1299;97903;-69
2022/11/15 08:21:01;;;;;;;24.40;12.50;;;;;;;4.83;81.59;99043.56;103558;1299;108082;-68
2022/11/15 08:23:30;;;;;;;23.20;11.60;;;;;;;4.93;81.53;99041.84;103635;1289;97988;-69
2022/11/15 08:26:02;;;;;;;27.20;11.50;;;;;;;5.03;81.38;99036.77;103694;1291;95147;-70
2022/11/15 08:28:32;;;;;;;25.70;12.50;;;;;;;5.14;81.47;99034.79;103622;1299;111081;-69
2022/11/15 08:31:02;;;;;;;26.30;12.10;;;;;;;5.28;81.56;99034.95;103667;1292;97964;-71
2022/11/15 08:33:32;;;;;;;23.80;12.20;;;;;;;5.49;81.90;99032.66;103687;1292;106394;-68
2022/11/15 08:36:02;;;;;;;26.30;13.40;;;;;;;5.73;81.62;99028.98;103630;1295;96252;-69
2022/11/15 08:38:30;;;;;;;25.60;13.20;;;;;;;6.00;81.67;99026.85;103650;1298;97954;-66
2022/11/15 08:41:05;;;;;;;21.80;11.10;;;;;;;6.30;81.85;99023.80;103661;1291;111240;-67
2022/11/15 08:43:34;;;;;;;24.20;12.30;;;;;;;6.61;81.64;99019.61;103623;1298;97905;-68
2022/11/15 08:46:02;;;;;;;22.60;11.10;;;;;;;6.92;81.67;99016.80;103617;1298;108160;-67
2022/11/15 08:48:31;;;;;;;22.00;10.90;;;;;;;7.25;81.56;99011.84;103628;1289;95114;-70
2022/11/15 08:50:59;;;;;;;22.50;11.50;;;;;;;7.66;81.47;99006.02;103608;1292;97890;-68
2022/11/15 08:53:27;;;;;;;21.20;9.80;;;;;;;8.08;81.65;99002.35;103643;1296;111717;-70
2022/11/15 08:55:55;;;;;;;22.00;9.90;;;;;;;8.53;81.45;98994.02;103656;1296;95138;-69
2022/11/15 08:58:24;;;;;;;24.60;9.40;;;;;;;9.00;81.49;98990.26;103604;1289;108036;-69
2022/11/15 09:00:52;;;;;;;21.30;9.90;;;;;;;9.45;81.14;98985.61;103664;1297;97839;-68
2022/11/15 09:03:21;;;;;;;21.50;9.80;;;;;;;9.93;81.13;98984.94;103674;1297;97888;-67
2022/11/15 09:05:55;;;;;;;20.80;9.60;;;;;;;10.51;80.83;98977.73;103593;1291;111384;-68
2022/11/15 09:08:25;;;;;;;20.70;9.40;;;;;;;11.13;80.51;98971.88;103676;1295;96550;-68
2022/11/15 09:11:12;;;;;;;18.10;8.20;;;;;;;11.83;80.25;98960.81;103641;1297;107916;-67
2022/11/15 09:13:41;;;;;;;18.90;8.70;;;;;;;12.38;79.88;98963.41;103622;1291;95275;-67
2022/11/15 09:16:11;;;;;;;20.80;8.80;;;;;;;12.63;79.29;98956.52;103612;1299;97973;-68
2022/11/15 09:18:40;;;;;;;19.40;8.80;;;;;;;12.73;79.32;98956.64;103645;1291;110712;-68
2022/11/15 09:21:09;;;;;;;18.30;8.50;;;;;;;12.88;79.40;98956.61;103609;1297;97961;-67
2022/11/15 09:23:38;;;;;;;18.00;8.60;;;;;;;13.03;79.42;98953.60;103636;1299;107705;-68
2022/11/15 09:26:06;;;;;;;18.70;8.20;;;;;;;13.17;79.25;98950.28;103615;1297;97785;-68
2022/11/15 09:28:36;;;;;;;18.40;8.30;;;;;;;13.13;78.64;98949.55;103589;1289;95125;-68
2022/11/15 09:31:05;;;;;;;18.00;7.40;;;;;;;13.09;78.88;98947.02;103601;1299;111200;-69
2022/11/15 09:33:34;;;;;;;18.60;8.20;;;;;;;13.14;79.09;98944.11;103620;1297;97748;-68
2022/11/15 09:36:08;;;;;;;16.60;8.00;;;;;;;13.27;79.08;98942.27;103423;1291;108076;-69
2022/11/15 09:38:37;;;;;;;17.50;8.60;;;;;;;13.36;79.22;98931.92;103627;1293;98477;-69
2022/11/15 09:41:44;;;;;;;17.70;8.00;;;;;;;13.47;79.33;98925.61;103586;1298;97862;-69
2022/11/15 09:44:42;;;;;;;16.80;7.70;;;;;;;13.59;79.08;98928.52;103579;1297;110453;-71
2022/11/15 09:47:54;;;;;;;15.80;7.40;;;;;;;13.58;78.67;98923.15;103576;1297;95180;-69
2022/11/15 09:50:39;;;;;;;16.30;7.50;;;;;;;13.71;78.67;98920.02;103364;1291;107312;-70
2022/11/15 09:53:14;;;;;;;17.40;8.40;;;;;;;13.88;78.84;98909.24;103562;1282;98001;-68
2022/11/15 09:56:01;;;;;;;18.30;8.40;;;;;;;13.93;78.66;98908.66;103594;1299;98183;-67
2022/11/15 09:58:36;;;;;;;19.60;8.20;;;;;;;13.73;77.62;98905.02;103605;1291;112311;-68
2022/11/15 10:01:12;;;;;;;18.00;7.70;;;;;;;13.64;77.78;98904.08;103572;1291;97979;-67
2022/11/15 10:03:41;;;;;;;18.50;8.40;;;;;;;13.61;77.75;98900.98;103580;1292;107328;-67
2022/11/15 10:06:24;;;;;;;19.50;8.30;;;;;;;13.57;77.83;98900.40;103597;1298;97984;-68
2022/11/15 10:09:02;;;;;;;17.30;7.90;;;;;;;13.55;77.66;98895.94;103575;1299;97871;-70
2022/11/15 10:11:33;;;;;;;17.50;8.20;;;;;;;13.58;77.85;98898.31;103600;1290;111253;-68
2022/11/15 10:14:15;;;;;;;14.80;7.10;;;;;;;13.61;77.66;98894.35;103590;1299;97872;-67
2022/11/15 10:16:58;;;;;;;18.50;8.50;;;;;;;13.64;77.52;98896.91;103650;1299;107480;-68
2022/11/15 10:19:48;;;;;;;19.90;8.90;;;;;;;13.60;77.36;98894.05;103614;1299;97975;-68
2022/11/15 10:22:30;;;;;;;18.20;8.00;;;;;;;13.46;76.90;98889.40;103580;1297;97875;-68
2022/11/15 10:25:01;;;;;;;20.10;9.10;;;;;;;13.33;76.79;98884.63;103573;1294;112249;-68
2022/11/15 10:27:29;;;;;;;17.40;7.80;;;;;;;13.24;76.97;98882.91;103599;1292;98204;-68
2022/11/15 10:29:57;;;;;;;19.40;8.50;;;;;;;13.19;76.88;98879.97;103598;1306;107190;-68
2022/11/15 10:32:26;;;;;;;19.80;8.20;;;;;;;13.14;76.68;98874.67;103608;1301;97979;-68
2022/11/15 10:34:55;;;;;;;24.80;8.90;;;;;;;13.07;76.64;98871.48;103638;1289;97857;-68
2022/11/15 10:37:31;;;;;;;17.30;8.00;;;;;;;13.01;76.61;98870.31;103429;1297;111442;-69
2022/11/15 10:40:22;;;;;;;19.10;8.10;;;;;;;12.95;76.50;98862.97;103563;1288;97935;-68
2022/11/15 10:43:08;;;;;;;17.60;7.70;;;;;;;12.84;76.41;98861.70;103572;1289;107824;-70
2022/11/15 10:45:38;;;;;;;19.70;8.70;;;;;;;12.74;76.22;98859.76;103580;1289;97895;-69
2022/11/15 10:48:12;;;;;;;18.70;8.70;;;;;;;12.68;76.25;98854.03;103575;1294;97885;-69
2022/11/15 10:50:42;;;;;;;19.90;7.80;;;;;;;12.62;76.05;98853.77;103584;1292;110582;-69
2022/11/15 10:53:30;;;;;;;18.60;8.40;;;;;;;12.58;76.08;98853.23;103604;1288;97882;-69
2022/11/15 10:56:05;;;;;;;18.70;8.60;;;;;;;12.56;75.96;98852.56;103586;1292;108106;-68
2022/11/15 10:58:42;;;;;;;19.80;7.70;;;;;;;12.51;75.68;98847.46;103620;1291;97910;-70
2022/11/15 11:01:17;;;;;;;19.70;8.60;;;;;;;12.43;75.64;98853.11;103686;1292;97862;-68
2022/11/15 11:04:08;;;;;;;18.40;8.20;;;;;;;12.37;75.49;98849.70;103630;1291;110833;-69
2022/11/15 11:07:21;;;;;;;20.70;8.90;;;;;;;12.26;75.55;98842.73;103675;1292;96259;-69
2022/11/15 11:09:58;;;;;;;19.00;8.20;;;;;;;12.31;75.51;98845.69;103432;1297;108159;-68
2022/11/15 11:12:31;;;;;;;18.60;8.80;;;;;;;12.33;75.42;98844.25;103595;1298;97938;-70
2022/11/15 11:15:12;;;;;;;20.50;8.50;;;;;;;12.34;75.26;98842.98;103605;1290;97966;-70
2022/11/15 11:18:02;;;;;;;17.20;7.70;;;;;;;12.39;75.29;98840.27;103574;1291;111665;-69
2022/11/15 11:20:41;;;;;;;16.50;7.10;;;;;;;12.49;75.15;98838.89;103631;1290;97870;-70
2022/11/15 11:23:31;;;;;;;17.50;7.50;;;;;;;12.60;75.06;98830.65;103646;1289;108086;-69
2022/11/15 11:26:39;;;;;;;16.50;7.90;;;;;;;12.77;74.89;98822.86;103663;1299;97956;-70
2022/11/15 11:29:35;;;;;;;21.90;8.80;;;;;;;12.98;74.82;98819.48;103641;1299;97938;-70
2022/11/15 11:32:14;;;;;;;19.20;8.80;;;;;;;13.15;74.74;98817.98;103596;1297;110678;-68
2022/11/15 11:34:58;;;;;;;18.60;8.60;;;;;;;13.28;74.76;98807.96;103666;1290;97965;-70
2022/11/15 11:37:53;;;;;;;22.30;9.30;;;;;;;13.38;74.59;98801.34;103644;1291;108003;-71
2022/11/15 11:40:34;;;;;;;21.60;9.10;;;;;;;13.54;74.55;98804.27;103665;1299;100487;-69
2022/11/15 11:43:28;;;;;;;20.90;8.90;;;;;;;13.74;74.42;98799.66;103670;1282;95647;-70
2022/11/15 11:46:13;;;;;;;24.70;10.70;;;;;;;13.95;74.25;98793.33;103674;1292;111743;-69
2022/11/15 11:48:44;;;;;;;19.30;8.70;;;;;;;14.11;73.93;98781.64;103672;1295;97935;-69
2022/11/15 11:51:20;;;;;;;20.00;9.10;;;;;;;14.28;73.92;98775.46;103638;1297;107190;-70
2022/11/15 11:54:04;;;;;;;19.90;8.40;;;;;;;14.45;74.01;98769.44;103623;1291;97876;-70